LVADT SABE-SAAR
Flight info
| Callsign | LVADT |
|---|---|
| Flight time | 0h 32m |
| Altitude | 24000 |
| Route | ATOVO4B ATOVO W5 ESKON |
| Aircraft | C700/M-SBDGHM1RWXY/LB2 |
Departure
| Time | 2026-04-21 00:17 |
|---|---|
| Airport | Aeroparque Jorge Newbery (SABE) |
Arrival
| Time | 2026-04-21 00:49 |
|---|---|
| Airport | Rosario Islas Malvinas International Airport (SAAR) |
| Time | Latitude | Longitude | Altitude | Speed | Heading |
|---|---|---|---|---|---|
| 2026-04-21 00:00 | -34.56278 | -58.41254 | 21 ft | 0 kts | 214° |
| 2026-04-21 00:08 | -34.56303 | -58.41286 | 23 ft | 9 kts | 255° |
| 2026-04-21 00:09 | -34.56288 | -58.41317 | 22 ft | 10 kts | 302° |
| 2026-04-21 00:09 | -34.56209 | -58.41460 | 21 ft | 30 kts | 304° |
| 2026-04-21 00:09 | -34.56166 | -58.41516 | 21 ft | 0 kts | 355° |
| 2026-04-21 00:09 | -34.56160 | -58.41509 | 21 ft | 7 kts | 45° |
| 2026-04-21 00:10 | -34.56102 | -58.41427 | 21 ft | 15 kts | 34° |
| 2026-04-21 00:10 | -34.56018 | -58.41358 | 21 ft | 14 kts | 34° |
| 2026-04-21 00:10 | -34.55937 | -58.41299 | 21 ft | 14 kts | 10° |
| 2026-04-21 00:10 | -34.55920 | -58.41309 | 21 ft | 4 kts | 297° |
| 2026-04-21 00:11 | -34.55882 | -58.41400 | 22 ft | 14 kts | 297° |
| 2026-04-21 00:11 | -34.55826 | -58.41532 | 22 ft | 20 kts | 297° |
| 2026-04-21 00:11 | -34.55752 | -58.41705 | 21 ft | 26 kts | 297° |
| 2026-04-21 00:11 | -34.55651 | -58.41906 | 21 ft | 29 kts | 305° |
| 2026-04-21 00:12 | -34.55540 | -58.42093 | 23 ft | 22 kts | 307° |
| 2026-04-21 00:12 | -34.55449 | -58.42242 | 22 ft | 15 kts | 306° |
| 2026-04-21 00:12 | -34.55424 | -58.42283 | 21 ft | 0 kts | 307° |
| 2026-04-21 00:13 | -34.55422 | -58.42287 | 21 ft | 4 kts | 307° |
| 2026-04-21 00:13 | -34.55385 | -58.42346 | 23 ft | 0 kts | 305° |
| 2026-04-21 00:14 | -34.55360 | -58.42442 | 21 ft | 15 kts | 277° |
| 2026-04-21 00:14 | -34.55417 | -58.42482 | 21 ft | 13 kts | 131° |
| 2026-04-21 00:14 | -34.55435 | -58.42455 | 21 ft | 0 kts | 123° |
| 2026-04-21 00:16 | -34.55560 | -58.42228 | 22 ft | 84 kts | 124° |
| 2026-04-21 00:16 | -34.56053 | -58.41338 | 156 ft | 158 kts | 122° |
| 2026-04-21 00:17 | -34.56683 | -58.39973 | 851 ft | 209 kts | 116° |
| 2026-04-21 00:17 | -34.57190 | -58.38870 | 1513 ft | 232 kts | 111° |
| 2026-04-21 00:17 | -34.57339 | -58.37122 | 2470 ft | 195 kts | 77° |
| 2026-04-21 00:17 | -34.56796 | -58.35536 | 3428 ft | 219 kts | 52° |
| 2026-04-21 00:18 | -34.55101 | -58.33999 | 4704 ft | 243 kts | 30° |
| 2026-04-21 00:18 | -34.54044 | -58.33421 | 5349 ft | 252 kts | 13° |
| 2026-04-21 00:18 | -34.52324 | -58.33629 | 6307 ft | 260 kts | 336° |
| 2026-04-21 00:18 | -34.50894 | -58.35019 | 7244 ft | 269 kts | 310° |
| 2026-04-21 00:19 | -34.49888 | -58.36941 | 8182 ft | 273 kts | 301° |
| 2026-04-21 00:19 | -34.48930 | -58.38922 | 9139 ft | 269 kts | 302° |
| 2026-04-21 00:19 | -34.47872 | -58.40841 | 10101 ft | 274 kts | 304° |
| 2026-04-21 00:19 | -34.46748 | -58.42793 | 11013 ft | 290 kts | 303° |
| 2026-04-21 00:20 | -34.45617 | -58.44823 | 11929 ft | 298 kts | 302° |
| 2026-04-21 00:20 | -34.44451 | -58.46940 | 12876 ft | 304 kts | 303° |
| 2026-04-21 00:20 | -34.43253 | -58.49090 | 13885 ft | 311 kts | 303° |
| 2026-04-21 00:20 | -34.42031 | -58.51272 | 14780 ft | 315 kts | 303° |
| 2026-04-21 00:21 | -34.40794 | -58.53491 | 15721 ft | 320 kts | 303° |
| 2026-04-21 00:21 | -34.39540 | -58.55739 | 16700 ft | 324 kts | 303° |
| 2026-04-21 00:21 | -34.38265 | -58.58020 | 17740 ft | 329 kts | 303° |
| 2026-04-21 00:21 | -34.36971 | -58.60334 | 18767 ft | 334 kts | 303° |
| 2026-04-21 00:22 | -34.35673 | -58.62654 | 19730 ft | 328 kts | 302° |
| 2026-04-21 00:22 | -34.34390 | -58.64944 | 20695 ft | 335 kts | 302° |
| 2026-04-21 00:22 | -34.33063 | -58.67300 | 21736 ft | 341 kts | 303° |
| 2026-04-21 00:22 | -34.31710 | -58.69684 | 22852 ft | 345 kts | 303° |
| 2026-04-21 00:23 | -34.30354 | -58.72110 | 23891 ft | 352 kts | 302° |
| 2026-04-21 00:23 | -34.28951 | -58.74632 | 24055 ft | 381 kts | 303° |
| 2026-04-21 00:23 | -34.27402 | -58.77388 | 24063 ft | 408 kts | 303° |
| 2026-04-21 00:23 | -34.25779 | -58.80262 | 24058 ft | 417 kts | 303° |
| 2026-04-21 00:24 | -34.24146 | -58.83160 | 24055 ft | 420 kts | 303° |
| 2026-04-21 00:24 | -34.22496 | -58.86094 | 24048 ft | 421 kts | 303° |
| 2026-04-21 00:24 | -34.20848 | -58.89014 | 24047 ft | 421 kts | 303° |
| 2026-04-21 00:24 | -34.19193 | -58.91945 | 24046 ft | 421 kts | 303° |
| 2026-04-21 00:25 | -34.17539 | -58.94875 | 24044 ft | 421 kts | 303° |
| 2026-04-21 00:25 | -34.15906 | -58.97772 | 24042 ft | 421 kts | 303° |
| 2026-04-21 00:25 | -34.14249 | -59.00702 | 24042 ft | 421 kts | 303° |
| 2026-04-21 00:25 | -34.12596 | -59.03622 | 24038 ft | 421 kts | 303° |
| 2026-04-21 00:26 | -34.10946 | -59.06542 | 24039 ft | 421 kts | 303° |
| 2026-04-21 00:26 | -34.09298 | -59.09451 | 24042 ft | 420 kts | 303° |
| 2026-04-21 00:26 | -34.07645 | -59.12363 | 24039 ft | 420 kts | 303° |
| 2026-04-21 00:26 | -34.05973 | -59.15256 | 24034 ft | 420 kts | 306° |
| 2026-04-21 00:27 | -34.04103 | -59.17933 | 24028 ft | 421 kts | 309° |
| 2026-04-21 00:27 | -34.02215 | -59.20640 | 24029 ft | 420 kts | 308° |
| 2026-04-21 00:27 | -34.00361 | -59.23370 | 24027 ft | 420 kts | 308° |
| 2026-04-21 00:27 | -33.98491 | -59.26076 | 24026 ft | 420 kts | 308° |
| 2026-04-21 00:28 | -33.96598 | -59.28773 | 24024 ft | 420 kts | 308° |
| 2026-04-21 00:28 | -33.94735 | -59.31446 | 24026 ft | 420 kts | 308° |
| 2026-04-21 00:28 | -33.92851 | -59.34169 | 24026 ft | 420 kts | 308° |
| 2026-04-21 00:28 | -33.90979 | -59.36866 | 24026 ft | 420 kts | 308° |
| 2026-04-21 00:29 | -33.89097 | -59.39564 | 24025 ft | 420 kts | 308° |
| 2026-04-21 00:29 | -33.87241 | -59.42222 | 24024 ft | 420 kts | 308° |
| 2026-04-21 00:29 | -33.85360 | -59.44919 | 24025 ft | 419 kts | 308° |
| 2026-04-21 00:29 | -33.83483 | -59.47609 | 24024 ft | 419 kts | 308° |
| 2026-04-21 00:30 | -33.81604 | -59.50298 | 24023 ft | 419 kts | 308° |
| 2026-04-21 00:30 | -33.79722 | -59.52988 | 24021 ft | 419 kts | 308° |
| 2026-04-21 00:30 | -33.77841 | -59.55677 | 24020 ft | 419 kts | 308° |
| 2026-04-21 00:30 | -33.75963 | -59.58359 | 24018 ft | 419 kts | 308° |
| 2026-04-21 00:31 | -33.74085 | -59.61039 | 24018 ft | 419 kts | 308° |
| 2026-04-21 00:31 | -33.72204 | -59.63721 | 24013 ft | 419 kts | 308° |
| 2026-04-21 00:31 | -33.70348 | -59.66366 | 24013 ft | 419 kts | 308° |
| 2026-04-21 00:31 | -33.68464 | -59.69046 | 24014 ft | 419 kts | 308° |
| 2026-04-21 00:32 | -33.66580 | -59.71719 | 23982 ft | 416 kts | 308° |
| 2026-04-21 00:32 | -33.64729 | -59.74341 | 23458 ft | 401 kts | 308° |
| 2026-04-21 00:32 | -33.62974 | -59.76828 | 22866 ft | 389 kts | 308° |
| 2026-04-21 00:32 | -33.61243 | -59.79286 | 22302 ft | 383 kts | 308° |
| 2026-04-21 00:33 | -33.59525 | -59.81720 | 21734 ft | 382 kts | 308° |
| 2026-04-21 00:33 | -33.57808 | -59.84149 | 21178 ft | 381 kts | 308° |
| 2026-04-21 00:33 | -33.56109 | -59.86551 | 20598 ft | 379 kts | 308° |
| 2026-04-21 00:33 | -33.54406 | -59.88957 | 20008 ft | 378 kts | 309° |
| 2026-04-21 00:34 | -33.52702 | -59.91364 | 19443 ft | 377 kts | 309° |
| 2026-04-21 00:34 | -33.51008 | -59.93753 | 18887 ft | 375 kts | 309° |
| 2026-04-21 00:34 | -33.49321 | -59.96134 | 18337 ft | 373 kts | 309° |
| 2026-04-21 00:34 | -33.47640 | -59.98503 | 17649 ft | 371 kts | 309° |
| 2026-04-21 00:35 | -33.45996 | -60.00818 | 16969 ft | 367 kts | 309° |
| 2026-04-21 00:35 | -33.44346 | -60.03139 | 16297 ft | 364 kts | 309° |
| 2026-04-21 00:35 | -33.42706 | -60.05447 | 15634 ft | 361 kts | 309° |
| 2026-04-21 00:35 | -33.41075 | -60.07740 | 15056 ft | 366 kts | 309° |
| 2026-04-21 00:36 | -33.39395 | -60.10101 | 15017 ft | 377 kts | 309° |
| 2026-04-21 00:36 | -33.37695 | -60.12478 | 15017 ft | 381 kts | 309° |
| 2026-04-21 00:36 | -33.35964 | -60.14904 | 15018 ft | 382 kts | 309° |
| 2026-04-21 00:36 | -33.34238 | -60.17328 | 15020 ft | 383 kts | 309° |
| 2026-04-21 00:37 | -33.32503 | -60.19761 | 15016 ft | 383 kts | 309° |
| 2026-04-21 00:37 | -33.30793 | -60.22158 | 15013 ft | 383 kts | 309° |
| 2026-04-21 00:37 | -33.29065 | -60.24581 | 15011 ft | 383 kts | 309° |
| 2026-04-21 00:37 | -33.27330 | -60.27008 | 15012 ft | 383 kts | 309° |
| 2026-04-21 00:38 | -33.25591 | -60.29435 | 15013 ft | 383 kts | 309° |
| 2026-04-21 00:38 | -33.23874 | -60.31834 | 15013 ft | 383 kts | 309° |
| 2026-04-21 00:38 | -33.22142 | -60.34250 | 15010 ft | 383 kts | 309° |
| 2026-04-21 00:38 | -33.20424 | -60.36651 | 14774 ft | 367 kts | 309° |
| 2026-04-21 00:39 | -33.18768 | -60.38959 | 14257 ft | 368 kts | 309° |
| 2026-04-21 00:39 | -33.17127 | -60.41244 | 13743 ft | 354 kts | 310° |
| 2026-04-21 00:39 | -33.15565 | -60.43413 | 13158 ft | 335 kts | 309° |
| 2026-04-21 00:39 | -33.14378 | -60.45070 | 12672 ft | 324 kts | 309° |
| 2026-04-21 00:40 | -33.12955 | -60.47052 | 12196 ft | 310 kts | 309° |
| 2026-04-21 00:40 | -33.11584 | -60.48957 | 11768 ft | 297 kts | 309° |
| 2026-04-21 00:40 | -33.10247 | -60.50813 | 11210 ft | 291 kts | 309° |
| 2026-04-21 00:40 | -33.08938 | -60.52625 | 10636 ft | 286 kts | 309° |
| 2026-04-21 00:41 | -33.07654 | -60.54410 | 10184 ft | 279 kts | 309° |
| 2026-04-21 00:41 | -33.06392 | -60.56160 | 9772 ft | 278 kts | 309° |
| 2026-04-21 00:41 | -33.05140 | -60.57901 | 9249 ft | 281 kts | 310° |
| 2026-04-21 00:41 | -33.03863 | -60.59672 | 8680 ft | 281 kts | 310° |
| 2026-04-21 00:42 | -33.02586 | -60.61441 | 8117 ft | 280 kts | 310° |
| 2026-04-21 00:42 | -33.01321 | -60.63191 | 7565 ft | 278 kts | 310° |
| 2026-04-21 00:42 | -33.00061 | -60.64937 | 7016 ft | 276 kts | 310° |
| 2026-04-21 00:42 | -32.98804 | -60.66674 | 6510 ft | 275 kts | 310° |
| 2026-04-21 00:43 | -32.97631 | -60.68298 | 5964 ft | 242 kts | 310° |
| 2026-04-21 00:43 | -32.96521 | -60.69828 | 5324 ft | 245 kts | 311° |
| 2026-04-21 00:43 | -32.95404 | -60.71372 | 4678 ft | 246 kts | 311° |
| 2026-04-21 00:43 | -32.94286 | -60.72919 | 4024 ft | 246 kts | 311° |
| 2026-04-21 00:44 | -32.93156 | -60.74458 | 3389 ft | 243 kts | 311° |
| 2026-04-21 00:44 | -32.92096 | -60.75893 | 3002 ft | 215 kts | 312° |
| 2026-04-21 00:44 | -32.91199 | -60.77110 | 2979 ft | 184 kts | 311° |
| 2026-04-21 00:45 | -32.89443 | -60.79212 | 2355 ft | 175 kts | 324° |
| 2026-04-21 00:45 | -32.88367 | -60.79850 | 2009 ft | 170 kts | 339° |
| 2026-04-21 00:45 | -32.87336 | -60.80371 | 1801 ft | 158 kts | 337° |
| 2026-04-21 00:45 | -32.86318 | -60.80897 | 1683 ft | 162 kts | 338° |
| 2026-04-21 00:46 | -32.85275 | -60.81411 | 1643 ft | 164 kts | 343° |
| 2026-04-21 00:46 | -32.84131 | -60.81552 | 1454 ft | 163 kts | 7° |
| 2026-04-21 00:46 | -32.83185 | -60.81053 | 1280 ft | 148 kts | 35° |
| 2026-04-21 00:46 | -32.82492 | -60.80200 | 1086 ft | 143 kts | 66° |
| 2026-04-21 00:47 | -32.82319 | -60.79068 | 903 ft | 143 kts | 97° |
| 2026-04-21 00:47 | -32.82871 | -60.78161 | 679 ft | 141 kts | 152° |
| 2026-04-21 00:47 | -32.83814 | -60.77904 | 517 ft | 137 kts | 167° |
| 2026-04-21 00:47 | -32.84746 | -60.77706 | 547 ft | 136 kts | 177° |
| 2026-04-21 00:48 | -32.85704 | -60.77777 | 678 ft | 135 kts | 182° |
| 2026-04-21 00:48 | -32.86550 | -60.77837 | 504 ft | 112 kts | 180° |
| 2026-04-21 00:48 | -32.87402 | -60.77941 | 501 ft | 142 kts | 183° |
| 2026-04-21 00:48 | -32.88359 | -60.78076 | 317 ft | 127 kts | 184° |
| 2026-04-21 00:49 | -32.89171 | -60.78209 | 111 ft | 111 kts | 185° |
| 2026-04-21 00:49 | -32.89833 | -60.78349 | 93 ft | 73 kts | 190° |
| 2026-04-21 00:49 | -32.90153 | -60.78422 | 90 ft | 11 kts | 193° |
| 2026-04-21 00:49 | -32.90281 | -60.78452 | 91 ft | 27 kts | 189° |
| 2026-04-21 00:50 | -32.90481 | -60.78497 | 89 ft | 29 kts | 191° |
| 2026-04-21 00:50 | -32.90685 | -60.78543 | 92 ft | 31 kts | 191° |
| 2026-04-21 00:50 | -32.90903 | -60.78559 | 93 ft | 32 kts | 165° |
| 2026-04-21 00:50 | -32.91068 | -60.78485 | 91 ft | 17 kts | 151° |
| 2026-04-21 00:51 | -32.91164 | -60.78403 | 90 ft | 15 kts | 138° |
| 2026-04-21 00:51 | -32.91254 | -60.78315 | 91 ft | 19 kts | 142° |
| 2026-04-21 00:51 | -32.91370 | -60.78211 | 91 ft | 22 kts | 142° |
| 2026-04-21 00:51 | -32.91432 | -60.78152 | 90 ft | 5 kts | 169° |
| 2026-04-21 00:52 | -32.91466 | -60.78083 | 91 ft | 13 kts | 101° |
| 2026-04-21 00:52 | -32.91465 | -60.78044 | 90 ft | 0 kts | 86° |